createdAt,value
2019-04-04T00:00:03.314Z,0.3
2019-04-04T00:00:16.225Z,0.6
2019-04-04T00:00:27.027Z,0.9
2019-04-04T00:00:38.917Z,0.8
2019-04-04T00:00:51.765Z,0.3
2019-04-04T00:01:03.668Z,0.2
2019-04-04T00:01:16.889Z,0.2
2019-04-04T00:01:27.359Z,0.2
2019-04-04T00:01:39.189Z,0.3
2019-04-04T00:01:52.037Z,0.2
2019-04-04T00:02:04.058Z,0.3
2019-04-04T00:02:17.039Z,0.4
2019-04-04T00:02:27.811Z,0.3
2019-04-04T00:02:39.675Z,0.2
2019-04-04T00:02:51.524Z,0.3
2019-04-04T00:03:03.382Z,0.2
2019-04-04T00:03:15.272Z,0.2
2019-04-04T00:03:27.085Z,0.3
2019-04-04T00:03:38.963Z,0.3
2019-04-04T00:03:51.668Z,0.2
2019-04-04T00:04:02.647Z,0.2
2019-04-04T00:04:14.503Z,0.2
2019-04-04T00:04:27.321Z,0.3
2019-04-04T00:04:39.168Z,0.3
2019-04-04T00:04:52.469Z,0.2
2019-04-04T00:05:02.824Z,0.2
2019-04-04T00:05:14.687Z,0.3
2019-04-04T00:05:26.521Z,0.3
2019-04-04T00:05:38.428Z,0.4
2019-04-04T00:05:50.357Z,0.5
2019-04-04T00:06:02.192Z,0.4
2019-04-04T00:06:14.036Z,0.3
2019-04-04T00:06:26.976Z,0.4
2019-04-04T00:06:37.726Z,1.3
2019-04-04T00:06:49.579Z,1.3
2019-04-04T00:07:02.490Z,1.3
2019-04-04T00:07:14.323Z,0.3
2019-04-04T00:07:27.044Z,0.4
2019-04-04T00:07:38.054Z,0.4
2019-04-04T00:07:49.918Z,0.2
2019-04-04T00:08:01.749Z,0.4
2019-04-04T00:08:13.580Z,0.5
2019-04-04T00:08:25.432Z,0.6
2019-04-04T00:08:37.250Z,0.3
2019-04-04T00:08:49.085Z,0.3
2019-04-04T00:09:01.970Z,0.3
2019-04-04T00:09:12.776Z,0.2
2019-04-04T00:09:24.600Z,0.2
2019-04-04T00:09:37.472Z,0.4
2019-04-04T00:09:49.306Z,0.4
2019-04-04T00:10:02.055Z,0.5
2019-04-04T00:10:13.037Z,0.4
2019-04-04T00:10:24.874Z,0.2
2019-04-04T00:10:37.699Z,0.3
2019-04-04T00:10:49.596Z,0.2
2019-04-04T00:11:01.500Z,0.2
2019-04-04T00:11:13.322Z,0.3
2019-04-04T00:11:25.156Z,0.8
2019-04-04T00:11:37.456Z,0.8
2019-04-04T00:11:48.832Z,0.7
2019-04-04T00:12:00.688Z,1
2019-04-04T00:12:13.557Z,1
2019-04-04T00:12:25.403Z,0.3
2019-04-04T00:12:38.944Z,0.3
2019-04-04T00:12:49.062Z,0.3
2019-04-04T00:13:00.898Z,0.2
2019-04-04T00:13:12.710Z,0.2
2019-04-04T00:13:24.541Z,0.3
2019-04-04T00:13:36.383Z,0.3
2019-04-04T00:13:48.180Z,0.3
2019-04-04T00:14:00.050Z,0.2
2019-04-04T00:14:12.887Z,0.2
2019-04-04T00:14:23.704Z,0.1
2019-04-04T00:14:35.540Z,0.3
2019-04-04T00:14:48.360Z,0.3
2019-04-04T00:15:00.275Z,0.2
2019-04-04T00:15:12.944Z,0.3
2019-04-04T00:15:23.925Z,0.3
2019-04-04T00:15:35.759Z,0.2
2019-04-04T00:15:47.608Z,0.2
2019-04-04T00:15:59.454Z,0.2
2019-04-04T00:16:11.288Z,0.3
2019-04-04T00:16:23.137Z,0.4
2019-04-04T00:16:34.974Z,0.3
2019-04-04T00:16:48.733Z,0.2
2019-04-04T00:16:58.633Z,0.3
2019-04-04T00:17:10.597Z,0.6
2019-04-04T00:17:23.205Z,0.6
2019-04-04T00:17:34.299Z,0.4
2019-04-04T00:17:46.132Z,0.2
2019-04-04T00:17:58.953Z,0.4
2019-04-04T00:18:10.813Z,0.6
2019-04-04T00:18:22.645Z,0.4
2019-04-04T00:18:34.553Z,0.2
2019-04-04T00:18:46.384Z,0.5
2019-04-04T00:18:59.028Z,0.5
2019-04-04T00:19:10.129Z,0.4
2019-04-04T00:19:21.960Z,0.5
2019-04-04T00:19:34.809Z,0.7
2019-04-04T00:19:46.649Z,0.7
2019-04-04T00:19:58.939Z,0.5
2019-04-04T00:20:10.388Z,0.3
2019-04-04T00:20:22.221Z,0.4
2019-04-04T00:20:35.046Z,0.4
2019-04-04T00:20:46.957Z,0.6
2019-04-04T00:20:58.813Z,0.5
2019-04-04T00:21:10.642Z,0.3
2019-04-04T00:21:22.506Z,0.5
2019-04-04T00:21:34.625Z,0.4
2019-04-04T00:21:46.261Z,0.4
2019-04-04T00:21:58.096Z,0.1
2019-04-04T00:22:09.982Z,0.3
2019-04-04T00:22:21.856Z,0.5
2019-04-04T00:22:35.138Z,0.4
2019-04-04T00:22:46.539Z,0.4
2019-04-04T00:22:58.429Z,0.3
2019-04-04T00:23:11.362Z,0.3
2019-04-04T00:23:23.194Z,0.2
2019-04-04T00:23:37.606Z,0.2
2019-04-04T00:23:46.925Z,0.2
2019-04-04T00:23:58.778Z,0.1
2019-04-04T00:24:10.589Z,0.2
2019-04-04T00:24:22.433Z,0.2
2019-04-04T00:24:34.287Z,0.2
2019-04-04T00:24:46.139Z,0.2
2019-04-04T00:24:57.976Z,0.3
2019-04-04T00:25:10.482Z,0.4
2019-04-04T00:25:21.632Z,0.3
2019-04-04T00:25:33.467Z,0.4
2019-04-04T00:25:46.287Z,0.5
2019-04-04T00:25:58.115Z,0.4
2019-04-04T00:26:10.767Z,0.4
2019-04-04T00:26:21.773Z,0.3
2019-04-04T00:26:33.595Z,0.4
2019-04-04T00:26:46.408Z,0.2
2019-04-04T00:26:58.244Z,0.3
2019-04-04T00:27:11.159Z,0.2
2019-04-04T00:27:21.934Z,0.5
2019-04-04T00:27:33.760Z,1.8
2019-04-04T00:27:45.585Z,1.9
2019-04-04T00:27:57.412Z,0.4
2019-04-04T00:28:09.279Z,0.2
2019-04-04T00:28:21.106Z,0.3
2019-04-04T00:28:32.940Z,0.3
2019-04-04T00:28:46.051Z,0.3
2019-04-04T00:28:56.594Z,0.4
2019-04-04T00:29:08.413Z,0.4
2019-04-04T00:29:21.257Z,0.3
2019-04-04T00:29:33.094Z,0.2
2019-04-04T00:29:45.984Z,0.1
2019-04-04T00:29:56.732Z,0.1
2019-04-04T00:30:08.564Z,0.1
2019-04-04T00:30:21.382Z,0.1
2019-04-04T00:30:33.219Z,0.3
2019-04-04T00:30:45.050Z,0.4
2019-04-04T00:30:56.874Z,0.3
2019-04-04T00:31:09.441Z,0.3
2019-04-04T00:31:22.265Z,0.3
2019-04-04T00:31:34.108Z,0.3
2019-04-04T00:31:45.939Z,0.3
2019-04-04T00:31:57.766Z,0.2
2019-04-04T00:32:09.606Z,0.1
2019-04-04T00:32:21.658Z,0.2
2019-04-04T00:32:33.267Z,0.3
2019-04-04T00:32:45.120Z,0.3
2019-04-04T00:32:57.972Z,0.2
2019-04-04T00:33:09.799Z,0.2
2019-04-04T00:33:21.664Z,0.5
2019-04-04T00:33:33.505Z,0.4
2019-04-04T00:33:45.368Z,0.7
2019-04-04T00:33:57.198Z,0.5
2019-04-04T00:34:09.025Z,0.6
2019-04-04T00:34:20.859Z,0.4
2019-04-04T00:34:33.684Z,0.4
2019-04-04T00:34:45.510Z,0.9
2019-04-04T00:34:57.759Z,0.9
2019-04-04T00:35:09.192Z,0.2
2019-04-04T00:35:21.005Z,0.4
2019-04-04T00:35:33.827Z,0.3
2019-04-04T00:35:45.644Z,0.2
2019-04-04T00:35:57.479Z,0.2
2019-04-04T00:36:09.292Z,0.3
2019-04-04T00:36:21.135Z,0.3
2019-04-04T00:36:34.564Z,0.4
2019-04-04T00:36:44.786Z,0.3
2019-04-04T00:36:56.620Z,0.3
2019-04-04T00:37:09.452Z,0.4
2019-04-04T00:37:21.294Z,0.2
2019-04-04T00:37:34.418Z,0.2
2019-04-04T00:37:45.943Z,0.3
2019-04-04T00:37:57.772Z,0.4
2019-04-04T00:38:10.590Z,1
2019-04-04T00:38:22.441Z,1
2019-04-04T00:38:34.306Z,0.4
2019-04-04T00:38:46.098Z,0.4
2019-04-04T00:38:57.934Z,0.4
2019-04-04T00:39:09.979Z,0.3
2019-04-04T00:39:21.592Z,0.2
2019-04-04T00:39:33.432Z,0.1
2019-04-04T00:39:46.246Z,0.1
2019-04-04T00:39:58.076Z,1.1
2019-04-04T00:40:11.572Z,1.1
2019-04-04T00:40:21.755Z,0.5
2019-04-04T00:40:33.593Z,0.3
2019-04-04T00:40:46.415Z,0.2
2019-04-04T00:40:58.251Z,0.2
2019-04-04T00:41:10.957Z,0.2
2019-04-04T00:41:21.912Z,0.2
2019-04-04T00:41:33.742Z,0.2
2019-04-04T00:41:45.563Z,0.3
2019-04-04T00:41:57.391Z,0.6
2019-04-04T00:42:09.239Z,0.5
2019-04-04T00:42:22.054Z,0.4
2019-04-04T00:42:33.886Z,0.2
2019-04-04T00:42:45.891Z,0.3
2019-04-04T00:42:57.553Z,0.4
2019-04-04T00:43:09.405Z,0.3
2019-04-04T00:43:21.602Z,0.2
2019-04-04T00:43:33.066Z,0.2
2019-04-04T00:43:44.895Z,0.3
2019-04-04T00:43:57.700Z,0.3
2019-04-04T00:44:09.518Z,0.3
2019-04-04T00:44:23.019Z,0.4
2019-04-04T00:44:33.172Z,0.2
2019-04-04T00:44:45.057Z,0.2
2019-04-04T00:44:57.164Z,0.2
2019-04-04T00:45:09.746Z,0.2
2019-04-04T00:45:22.372Z,0.3
2019-04-04T00:45:35.058Z,0.3
2019-04-04T00:45:47.680Z,0.7
2019-04-04T00:46:00.648Z,0.7
2019-04-04T00:46:12.948Z,0.4
2019-04-04T00:46:25.625Z,0.3
2019-04-04T00:46:38.189Z,0.5
2019-04-04T00:46:50.824Z,0.5
2019-04-04T00:47:04.416Z,0.5
2019-04-04T00:47:17.050Z,0.3
2019-04-04T00:47:32.308Z,0.4
2019-04-04T00:47:42.331Z,0.3
2019-04-04T00:47:54.949Z,0.3
2019-04-04T00:48:08.558Z,0.1
2019-04-04T00:48:21.189Z,0.2
2019-04-04T00:48:34.166Z,0.2
2019-04-04T00:48:46.469Z,0.3
2019-04-04T00:48:58.829Z,0.3
2019-04-04T00:49:10.659Z,0.3
2019-04-04T00:49:22.490Z,0.4
2019-04-04T00:49:35.519Z,0.3
2019-04-04T00:49:46.159Z,0.3
2019-04-04T00:49:58.030Z,0.2
2019-04-04T00:50:10.846Z,0.2
2019-04-04T00:50:22.681Z,0.2
2019-04-04T00:50:34.825Z,0.2
2019-04-04T00:50:46.362Z,0.2
2019-04-04T00:50:58.191Z,0.4
2019-04-04T00:51:11.010Z,0.4
2019-04-04T00:51:22.827Z,0.2
2019-04-04T00:51:34.664Z,0.2
2019-04-04T00:51:46.486Z,0.3
2019-04-04T00:51:58.322Z,0.3
2019-04-04T00:52:10.861Z,0.2
2019-04-04T00:52:21.992Z,0.2
2019-04-04T00:52:33.820Z,0.2
2019-04-04T00:52:46.632Z,0.2
2019-04-04T00:52:58.472Z,0.2
2019-04-04T00:53:11.766Z,0.2
2019-04-04T00:53:22.134Z,0.2
2019-04-04T00:53:33.964Z,0.2
2019-04-04T00:53:46.788Z,0.2
2019-04-04T00:53:58.625Z,0.2
2019-04-04T00:54:12.037Z,0.2
2019-04-04T00:54:22.283Z,0.2
2019-04-04T00:54:34.119Z,0.2
2019-04-04T00:54:45.932Z,0.2
2019-04-04T00:54:57.791Z,0.3
2019-04-04T00:55:09.628Z,0.3
2019-04-04T00:55:21.507Z,0.3
2019-04-04T00:55:33.343Z,0.4
2019-04-04T00:55:46.900Z,0.3
2019-04-04T00:55:57.007Z,0.3
2019-04-04T00:56:08.843Z,0.2
2019-04-04T00:56:21.653Z,0.5
2019-04-04T00:56:33.483Z,0.3
2019-04-04T00:56:46.849Z,0.2
2019-04-04T00:56:57.142Z,0.2
2019-04-04T00:57:08.981Z,0.2
2019-04-04T00:57:20.810Z,0.2
2019-04-04T00:57:32.644Z,0.2
2019-04-04T00:57:44.490Z,0.3
2019-04-04T00:57:56.302Z,0.5
2019-04-04T00:58:08.150Z,0.4
2019-04-04T00:58:20.788Z,0.2
2019-04-04T00:58:31.805Z,0.2
2019-04-04T00:58:43.632Z,0.3
2019-04-04T00:58:56.458Z,0.3
2019-04-04T00:59:08.292Z,0.2
2019-04-04T00:59:22.603Z,0.3
2019-04-04T00:59:31.945Z,0.3
2019-04-04T00:59:43.776Z,0.3
2019-04-04T00:59:55.601Z,0.2
2019-04-04T01:00:07.436Z,0.3
2019-04-04T01:00:19.298Z,0.3
2019-04-04T01:00:31.189Z,0.3
2019-04-04T01:00:43.021Z,0.2
2019-04-04T01:00:55.437Z,0.2
2019-04-04T01:01:06.678Z,0.2
2019-04-04T01:01:18.514Z,0.2
2019-04-04T01:01:31.333Z,0.2
2019-04-04T01:01:44.153Z,0.1
2019-04-04T01:01:56.971Z,0.2
2019-04-04T01:02:07.808Z,0.4
2019-04-04T01:02:19.632Z,0.4
2019-04-04T01:02:32.463Z,0.5
2019-04-04T01:02:44.300Z,0.4
2019-04-04T01:02:58.251Z,0.4
2019-04-04T01:03:07.969Z,0.3
2019-04-04T01:03:19.814Z,0.2
2019-04-04T01:03:31.632Z,0.2
2019-04-04T01:03:43.466Z,0.1
2019-04-04T01:03:55.297Z,0.2
2019-04-04T01:04:07.112Z,0.2
2019-04-04T01:04:18.951Z,0.3
2019-04-04T01:04:31.119Z,0.2
2019-04-04T01:04:42.605Z,0.2
2019-04-04T01:04:54.436Z,0.1
2019-04-04T01:05:07.255Z,0.1
2019-04-04T01:05:19.081Z,0.1
2019-04-04T01:05:32.014Z,0.2
2019-04-04T01:05:42.891Z,0.4
2019-04-04T01:05:54.717Z,0.4
2019-04-04T01:06:07.543Z,0.2
2019-04-04T01:06:19.377Z,0.1
2019-04-04T01:06:31.846Z,0.2
2019-04-04T01:06:43.022Z,0.2
2019-04-04T01:06:55.303Z,0.2
2019-04-04T01:07:08.847Z,0.1
2019-04-04T01:07:21.441Z,0.1
2019-04-04T01:07:35.790Z,0.1
2019-04-04T01:07:46.608Z,0.2
2019-04-04T01:07:59.167Z,0.1
2019-04-04T01:08:12.712Z,0.2
2019-04-04T01:08:25.256Z,0.3
2019-04-04T01:08:38.751Z,0.3
2019-04-04T01:08:50.408Z,0.3
2019-04-04T01:09:02.954Z,0.2
2019-04-04T01:09:16.545Z,0.2
2019-04-04T01:09:29.008Z,0.2
2019-04-04T01:09:41.640Z,0.1
2019-04-04T01:09:54.253Z,0.2
2019-04-04T01:10:06.793Z,0.2
2019-04-04T01:10:19.591Z,0.3
2019-04-04T01:10:30.987Z,0.4
2019-04-04T01:10:43.760Z,0.3
2019-04-04T01:10:56.370Z,0.2
2019-04-04T01:11:08.917Z,0.3
2019-04-04T01:11:21.465Z,0.4
2019-04-04T01:11:34.089Z,0.3
2019-04-04T01:11:46.693Z,0.3
2019-04-04T01:11:59.305Z,0.3
2019-04-04T01:12:11.910Z,0.3
2019-04-04T01:12:25.474Z,0.2
2019-04-04T01:12:38.107Z,0.2
2019-04-04T01:12:52.104Z,0.2
2019-04-04T01:13:03.256Z,0.3
2019-04-04T01:13:15.820Z,0.2
2019-04-04T01:13:29.385Z,0.2
2019-04-04T01:13:41.986Z,0.1
2019-04-04T01:13:57.534Z,0.2
2019-04-04T01:14:07.217Z,0.2
2019-04-04T01:14:19.850Z,0.2
2019-04-04T01:14:33.173Z,0.3
2019-04-04T01:14:45.850Z,0.4
2019-04-04T01:15:00.079Z,0.5
2019-04-04T01:15:11.097Z,0.8
2019-04-04T01:15:23.693Z,0.5
2019-04-04T01:15:37.309Z,0.5
2019-04-04T01:15:50.057Z,0.1
2019-04-04T01:16:03.349Z,0.1
2019-04-04T01:16:15.284Z,0.2
2019-04-04T01:16:27.920Z,0.3
2019-04-04T01:16:40.526Z,0.3
2019-04-04T01:16:53.118Z,0.2
2019-04-04T01:17:06.737Z,0.2
2019-04-04T01:17:19.362Z,0.1
2019-04-04T01:17:32.991Z,0.2
2019-04-04T01:17:44.616Z,0.2
2019-04-04T01:17:57.180Z,0.1
2019-04-04T01:18:10.864Z,0.2
2019-04-04T01:18:23.497Z,0.2
2019-04-04T01:18:37.412Z,0.3
2019-04-04T01:18:48.804Z,0.6
2019-04-04T01:19:01.381Z,0.4
2019-04-04T01:19:14.887Z,0.2
2019-04-04T01:19:27.371Z,0.9
2019-04-04T01:19:39.901Z,0.9
2019-04-04T01:19:53.444Z,1
2019-04-04T01:20:06.014Z,0.4
2019-04-04T01:20:20.281Z,0.2
2019-04-04T01:20:31.200Z,0.3
2019-04-04T01:20:43.946Z,0.2
2019-04-04T01:20:56.536Z,0.2
2019-04-04T01:21:09.158Z,0.2
2019-04-04T01:21:22.143Z,0.4
2019-04-04T01:21:34.394Z,0.4
2019-04-04T01:21:46.962Z,0.3
2019-04-04T01:21:59.569Z,0.2
2019-04-04T01:22:12.213Z,0.2
2019-04-04T01:22:24.995Z,0.2
2019-04-04T01:22:37.447Z,0.2
2019-04-04T01:22:50.009Z,0.3
2019-04-04T01:23:02.648Z,0.3
2019-04-04T01:23:14.989Z,0.2
2019-04-04T01:23:27.696Z,0.1
2019-04-04T01:23:40.143Z,0.1
2019-04-04T01:23:52.733Z,0.2
2019-04-04T01:24:05.237Z,0.2
2019-04-04T01:24:17.780Z,0.1
2019-04-04T01:24:30.835Z,0.1
2019-04-04T01:24:43.387Z,0.1
2019-04-04T01:24:56.000Z,0.2
2019-04-04T01:25:08.611Z,0.3
2019-04-04T01:25:21.141Z,0.3
2019-04-04T01:25:33.717Z,0.2
2019-04-04T01:25:46.299Z,0.2
2019-04-04T01:25:58.992Z,0.1
2019-04-04T01:26:11.593Z,0.4
2019-04-04T01:26:23.683Z,0.4
2019-04-04T01:26:35.814Z,0.3
2019-04-04T01:26:47.342Z,0.2
2019-04-04T01:26:59.176Z,0.1
2019-04-04T01:27:11.989Z,0.3
2019-04-04T01:27:23.807Z,0.3
2019-04-04T01:27:36.882Z,0.3
2019-04-04T01:27:47.506Z,0.2
2019-04-04T01:27:59.342Z,0.2
2019-04-04T01:28:12.163Z,0.2
2019-04-04T01:28:24.005Z,0.2
2019-04-04T01:28:37.087Z,0.2
2019-04-04T01:28:47.665Z,0.2
2019-04-04T01:28:59.507Z,0.1
2019-04-04T01:29:11.314Z,0.1
2019-04-04T01:29:23.144Z,0.2
2019-04-04T01:29:34.978Z,0.3
2019-04-04T01:29:46.804Z,0.4
2019-04-04T01:29:58.632Z,0.2
2019-04-04T01:30:12.498Z,0.2
2019-04-04T01:30:22.284Z,0.1
2019-04-04T01:30:34.128Z,0.2
2019-04-04T01:30:46.961Z,0.3
2019-04-04T01:30:58.805Z,0.3
2019-04-04T01:31:10.642Z,0.2
2019-04-04T01:31:22.478Z,0.3
2019-04-04T01:31:34.324Z,0.2
2019-04-04T01:31:46.611Z,0.2
2019-04-04T01:31:57.988Z,0.1
2019-04-04T01:32:09.835Z,0.1
2019-04-04T01:32:22.700Z,0.1
2019-04-04T01:32:34.560Z,0.3
2019-04-04T01:32:48.136Z,0.3
2019-04-04T01:32:58.248Z,0.4
2019-04-04T01:33:10.083Z,0.4
2019-04-04T01:33:22.908Z,0.3
2019-04-04T01:33:34.760Z,0.4
2019-04-04T01:33:46.593Z,0.3
2019-04-04T01:33:58.432Z,0.2
2019-04-04T01:34:10.274Z,0.2
2019-04-04T01:34:22.109Z,0.2
2019-04-04T01:34:33.955Z,0.2
2019-04-04T01:34:45.796Z,0.2
2019-04-04T01:34:57.634Z,0.2
2019-04-04T01:35:09.480Z,0.1
2019-04-04T01:35:22.741Z,0.1
2019-04-04T01:35:33.144Z,0.1
2019-04-04T01:35:44.977Z,0.2
2019-04-04T01:35:57.805Z,0.1
2019-04-04T01:36:09.639Z,0.2
2019-04-04T01:36:23.149Z,0.3
2019-04-04T01:36:33.319Z,0.2
2019-04-04T01:36:45.174Z,0.2
2019-04-04T01:36:57.122Z,0.2
2019-04-04T01:37:08.851Z,0.2
2019-04-04T01:37:20.718Z,0.2
2019-04-04T01:37:32.683Z,0.2
2019-04-04T01:37:44.518Z,0.1
2019-04-04T01:37:58.111Z,0.1
2019-04-04T01:38:08.177Z,0.3
2019-04-04T01:38:20.036Z,0.5
2019-04-04T01:38:32.868Z,0.5
2019-04-04T01:38:44.702Z,0.2
2019-04-04T01:38:58.040Z,0.2
2019-04-04T01:39:08.366Z,0.2
2019-04-04T01:39:20.209Z,0.3
2019-04-04T01:39:32.086Z,0.3
2019-04-04T01:39:43.888Z,0.2
2019-04-04T01:39:55.730Z,0.2
2019-04-04T01:40:07.559Z,0.2
2019-04-04T01:40:19.400Z,0.2
2019-04-04T01:40:33.581Z,0.1
2019-04-04T01:40:43.066Z,0.6
2019-04-04T01:40:55.221Z,0.7
2019-04-04T01:41:07.717Z,0.1
2019-04-04T01:41:19.562Z,0.1
2019-04-04T01:41:31.407Z,0.1
2019-04-04T01:41:43.234Z,0.2
2019-04-04T01:41:55.065Z,0.2
2019-04-04T01:42:07.130Z,0.3
2019-04-04T01:42:18.734Z,0.2
2019-04-04T01:42:30.582Z,0.3
2019-04-04T01:42:43.432Z,0.2
2019-04-04T01:42:55.273Z,0.2
2019-04-04T01:43:09.155Z,0.2
2019-04-04T01:43:18.930Z,0.2
2019-04-04T01:43:30.769Z,0.2
2019-04-04T01:43:43.585Z,0.1
2019-04-04T01:44:04.748Z,0.1
2019-04-04T01:44:10.751Z,0.1
2019-04-04T01:44:20.044Z,0.2
2019-04-04T01:44:32.016Z,0.2
2019-04-04T01:44:44.843Z,0.1
2019-04-04T01:44:56.708Z,0.1
2019-04-04T01:45:08.520Z,0.2
2019-04-04T01:45:20.346Z,0.2
2019-04-04T01:45:32.186Z,0.2
2019-04-04T01:45:44.905Z,0.2
2019-04-04T01:45:55.865Z,0.2
2019-04-04T01:46:07.701Z,0.2
2019-04-04T01:46:20.527Z,0.2
2019-04-04T01:46:32.369Z,0.2
2019-04-04T01:46:45.958Z,0.1
2019-04-04T01:46:56.025Z,0.2
2019-04-04T01:47:07.867Z,0.2
2019-04-04T01:47:20.698Z,0.2
2019-04-04T01:47:32.537Z,0.2
2019-04-04T01:47:45.919Z,0.2
2019-04-04T01:47:56.204Z,0.2
2019-04-04T01:48:08.043Z,0.1
2019-04-04T01:48:19.862Z,0.1
2019-04-04T01:48:31.703Z,0.2
2019-04-04T01:48:43.550Z,0.2
2019-04-04T01:48:55.381Z,0.2
2019-04-04T01:49:07.218Z,0.2
2019-04-04T01:49:21.090Z,0.2
2019-04-04T01:49:30.974Z,0.2
2019-04-04T01:49:42.813Z,0.1
2019-04-04T01:49:55.632Z,0.2
2019-04-04T01:50:07.463Z,0.3
2019-04-04T01:50:22.434Z,0.2
2019-04-04T01:50:31.143Z,0.2
2019-04-04T01:50:42.980Z,0.2
2019-04-04T01:50:54.809Z,0.2
2019-04-04T01:51:07.867Z,0.2
2019-04-04T01:51:18.476Z,0.1
2019-04-04T01:51:31.311Z,0.1
2019-04-04T01:51:43.145Z,0.1
2019-04-04T01:51:57.609Z,0.1
2019-04-04T01:52:06.818Z,0.1
2019-04-04T01:52:18.664Z,0.1
2019-04-04T01:52:31.484Z,0.2
2019-04-04T01:52:43.323Z,0.2
2019-04-04T01:52:55.155Z,0.2
2019-04-04T01:53:07.002Z,0.2
2019-04-04T01:53:18.837Z,0.2
2019-04-04T01:53:30.868Z,0.2
2019-04-04T01:53:42.518Z,0.2
2019-04-04T01:53:54.349Z,0.2
2019-04-04T01:54:06.177Z,0.1
2019-04-04T01:54:18.010Z,0.2
2019-04-04T01:54:31.985Z,0.2
2019-04-04T01:54:41.759Z,0.2
2019-04-04T01:54:53.599Z,0.2
2019-04-04T01:55:06.426Z,0.2
2019-04-04T01:55:18.263Z,0.1
2019-04-04T01:55:30.094Z,0.2
2019-04-04T01:55:41.918Z,0.2
2019-04-04T01:55:53.757Z,0.4
2019-04-04T01:56:06.653Z,0.5
2019-04-04T01:56:17.408Z,0.2
2019-04-04T01:56:29.258Z,0.2
2019-04-04T01:56:42.076Z,0.1
2019-04-04T01:56:53.918Z,0.1
2019-04-04T01:57:07.629Z,0.2
2019-04-04T01:57:17.617Z,0.3
2019-04-04T01:57:29.455Z,0.2
2019-04-04T01:57:42.278Z,0.1
2019-04-04T01:57:54.116Z,0.1
2019-04-04T01:58:05.955Z,0.1
2019-04-04T01:58:17.799Z,0.1
2019-04-04T01:58:29.670Z,0.2
2019-04-04T01:58:41.948Z,0.2
2019-04-04T01:58:53.330Z,0.2
2019-04-04T01:59:05.165Z,0.2
2019-04-04T01:59:17.988Z,0.2
2019-04-04T01:59:29.917Z,0.2
2019-04-04T01:59:41.919Z,0.1
2019-04-04T01:59:53.529Z,0.1
2019-04-04T02:00:05.370Z,0.2
2019-04-04T02:00:18.250Z,0.2
2019-04-04T02:00:30.093Z,0.1
2019-04-04T02:00:41.940Z,0.2
2019-04-04T02:00:53.770Z,0.3
2019-04-04T02:01:05.612Z,0.3
2019-04-04T02:01:17.453Z,0.2
2019-04-04T02:01:29.303Z,0.2
2019-04-04T02:01:41.140Z,0.1
2019-04-04T02:01:52.960Z,0.1
2019-04-04T02:02:04.801Z,0.3
2019-04-04T02:02:18.403Z,0.3
2019-04-04T02:02:28.462Z,0.2
2019-04-04T02:02:40.296Z,0.1
2019-04-04T02:02:52.476Z,0.1
2019-04-04T02:03:03.960Z,0.1
2019-04-04T02:03:15.802Z,0.2
2019-04-04T02:03:28.629Z,0.2
2019-04-04T02:03:40.475Z,0.2
2019-04-04T02:03:53.621Z,0.2
2019-04-04T02:04:04.150Z,0.3
2019-04-04T02:04:15.976Z,0.2
2019-04-04T02:04:28.824Z,0.2
2019-04-04T02:04:40.660Z,0.2
2019-04-04T02:04:53.888Z,0.2
2019-04-04T02:05:04.319Z,0.2
2019-04-04T02:05:16.188Z,0.2
2019-04-04T02:05:28.015Z,0.2
2019-04-04T02:05:39.862Z,0.2
2019-04-04T02:05:51.706Z,0.2
2019-04-04T02:06:03.545Z,0.2
2019-04-04T02:06:15.394Z,0.1
2019-04-04T02:06:28.533Z,0.1
2019-04-04T02:06:39.064Z,0.2
2019-04-04T02:06:51.898Z,0.2
2019-04-04T02:07:04.720Z,0.2
2019-04-04T02:07:16.554Z,0.2
2019-04-04T02:07:29.702Z,0.3
2019-04-04T02:07:40.217Z,0.2
2019-04-04T02:07:52.065Z,0.1
2019-04-04T02:08:04.901Z,0.1
2019-04-04T02:08:16.724Z,0.2
2019-04-04T02:08:31.289Z,0.3
2019-04-04T02:08:41.396Z,0.3
2019-04-04T02:08:53.231Z,0.2
2019-04-04T02:09:06.056Z,0.1
2019-04-04T02:09:17.903Z,0.1
2019-04-04T02:09:29.740Z,0.1
2019-04-04T02:09:43.363Z,0.2
2019-04-04T02:09:53.409Z,0.2
2019-04-04T02:10:05.978Z,0.3
2019-04-04T02:10:17.295Z,0.3
2019-04-04T02:10:29.129Z,0.2
2019-04-04T02:10:40.963Z,0.2
2019-04-04T02:10:52.797Z,0.2
2019-04-04T02:11:05.380Z,0.2
2019-04-04T02:11:16.469Z,0.1
2019-04-04T02:11:28.309Z,0.1
2019-04-04T02:11:41.128Z,0.1
2019-04-04T02:11:52.972Z,0.1
2019-04-04T02:12:07.485Z,0.1
2019-04-04T02:12:16.626Z,0.1
2019-04-04T02:12:28.473Z,0.1
2019-04-04T02:12:40.302Z,0.2
2019-04-04T02:12:52.153Z,0.3
2019-04-04T02:13:03.990Z,0.2
2019-04-04T02:13:15.827Z,0.2
2019-04-04T02:13:27.668Z,0.2
2019-04-04T02:13:40.827Z,0.2
2019-04-04T02:13:50.325Z,0.1
2019-04-04T02:14:02.155Z,0.2
2019-04-04T02:14:14.965Z,0.2
2019-04-04T02:15:04.539Z,0.2
2019-04-04T02:15:17.383Z,0.1
2019-04-04T02:15:29.267Z,0.3
2019-04-04T02:15:41.115Z,0.3
2019-04-04T02:15:52.966Z,0.3
2019-04-04T02:16:04.803Z,0.2
2019-04-04T02:16:16.875Z,0.2
2019-04-04T02:16:28.482Z,0.2
2019-04-04T02:16:40.311Z,0.2
2019-04-04T02:16:53.129Z,0.2
2019-04-04T02:17:04.965Z,0.2
2019-04-04T02:17:16.812Z,0.3
2019-04-04T02:17:28.641Z,0.3
2019-04-04T02:17:40.481Z,0.2
2019-04-04T02:17:52.899Z,0.4
2019-04-04T02:18:04.140Z,0.4
2019-04-04T02:18:15.973Z,0.4
2019-04-04T02:18:28.785Z,0.4
2019-04-04T02:18:40.619Z,0.5
2019-04-04T02:18:53.742Z,0.5
2019-04-04T02:19:04.290Z,0.2
2019-04-04T02:19:16.114Z,0.2
2019-04-04T02:19:28.954Z,0.1
2019-04-04T02:19:40.794Z,0.2
2019-04-04T02:19:55.467Z,0.2
2019-04-04T02:20:04.451Z,0.1
2019-04-04T02:20:16.286Z,0.1
2019-04-04T02:20:28.120Z,0.1
2019-04-04T02:20:39.964Z,0.1
2019-04-04T02:20:51.968Z,0.1
2019-04-04T02:21:03.787Z,0.2
2019-04-04T02:21:15.644Z,0.3
2019-04-04T02:21:28.677Z,0.3
2019-04-04T02:21:39.299Z,0.2
2019-04-04T02:21:51.133Z,0.2
2019-04-04T02:22:03.963Z,0.2
2019-04-04T02:22:15.807Z,0.3
2019-04-04T02:22:30.533Z,0.4
2019-04-04T02:22:39.482Z,0.3
2019-04-04T02:22:51.320Z,0.3
2019-04-04T02:23:03.158Z,0.3
2019-04-04T02:23:15.000Z,0.2
2019-04-04T02:23:26.845Z,0.1
2019-04-04T02:23:38.670Z,0.1
2019-04-04T02:23:50.505Z,0.1
2019-04-04T02:24:02.330Z,0.9
2019-04-04T02:24:14.178Z,1
2019-04-04T02:24:26.014Z,1
2019-04-04T02:24:37.852Z,0.2
2019-04-04T02:24:49.703Z,0.1
2019-04-04T02:25:03.023Z,0.2
2019-04-04T02:25:13.355Z,0.3
2019-04-04T02:25:25.196Z,0.3
2019-04-04T02:25:38.014Z,0.2
2019-04-04T02:25:49.876Z,0.2
2019-04-04T02:26:04.690Z,0.1
2019-04-04T02:26:13.548Z,0.2
2019-04-04T02:26:25.385Z,0.1
2019-04-04T02:26:37.215Z,0.3
2019-04-04T02:26:49.044Z,0.2
2019-04-04T02:27:00.887Z,0.4
2019-04-04T02:27:12.717Z,0.5
2019-04-04T02:27:24.548Z,0.5
2019-04-04T02:27:37.866Z,0.4
2019-04-04T02:27:48.214Z,0.3
2019-04-04T02:28:00.113Z,0.2
2019-04-04T02:28:12.943Z,0.2
2019-04-04T02:28:24.776Z,0.2
2019-04-04T02:28:37.935Z,0.3
2019-04-04T02:28:48.433Z,0.7
2019-04-04T02:29:00.265Z,1.2
2019-04-04T02:29:12.081Z,0.7
2019-04-04T02:29:23.925Z,0.2
2019-04-04T02:29:35.758Z,0.2
2019-04-04T02:29:47.589Z,0.1
2019-04-04T02:29:59.436Z,0.2
2019-04-04T02:30:14.508Z,0.4
2019-04-04T02:30:23.091Z,0.4
2019-04-04T02:30:34.925Z,0.2
2019-04-04T02:30:48.429Z,0.2
2019-04-04T02:30:58.597Z,0.2
2019-04-04T02:31:10.444Z,0.2
2019-04-04T02:31:23.261Z,0.2
2019-04-04T02:31:35.107Z,0.3
2019-04-04T02:31:46.934Z,0.5
2019-04-04T02:31:59.749Z,0.4
2019-04-04T02:32:11.577Z,0.3
2019-04-04T02:32:25.979Z,0.3
2019-04-04T02:32:35.234Z,0.3
2019-04-04T02:32:47.068Z,0.1
2019-04-04T02:33:00.376Z,0.2
2019-04-04T02:33:10.739Z,0.2
2019-04-04T02:33:22.581Z,0.3
2019-04-04T02:33:35.410Z,0.3
2019-04-04T02:33:47.249Z,0.3
2019-04-04T02:33:59.080Z,0.3
2019-04-04T02:34:11.899Z,0.2
2019-04-04T02:34:23.738Z,0.1
2019-04-04T02:34:37.833Z,0.2
2019-04-04T02:34:47.398Z,0.1
2019-04-04T02:34:59.238Z,0.2
2019-04-04T02:35:12.065Z,0.1
2019-04-04T02:35:23.932Z,0.1
2019-04-04T02:35:35.776Z,0.1
2019-04-04T02:35:48.589Z,0.1
2019-04-04T02:36:00.424Z,0.1
2019-04-04T02:36:16.140Z,0.2
2019-04-04T02:36:24.073Z,0.2
2019-04-04T02:36:35.906Z,0.3
2019-04-04T02:36:49.165Z,0.3
2019-04-04T02:36:59.583Z,0.3
2019-04-04T02:37:11.402Z,0.2
2019-04-04T02:37:24.217Z,0.2
2019-04-04T02:37:36.049Z,0.2
2019-04-04T02:37:47.902Z,0.2
2019-04-04T02:38:00.719Z,0.2
2019-04-04T02:38:12.594Z,0.2
2019-04-04T02:38:26.924Z,0.1
2019-04-04T02:38:36.262Z,0.1
2019-04-04T02:38:48.165Z,0.2
2019-04-04T02:39:00.744Z,0.2
2019-04-04T02:39:11.766Z,0.2
2019-04-04T02:39:23.610Z,0.2
2019-04-04T02:39:36.041Z,0.1
2019-04-04T02:39:47.283Z,0.2
2019-04-04T02:39:59.136Z,0.2
2019-04-04T02:40:11.951Z,0.2
2019-04-04T02:40:23.838Z,0.2
2019-04-04T02:40:35.682Z,0.1
2019-04-04T02:40:47.507Z,0.1
2019-04-04T02:40:59.372Z,0.1
2019-04-04T02:41:14.844Z,0.1
2019-04-04T02:41:23.027Z,0.1
2019-04-04T02:41:34.879Z,0.1
2019-04-04T02:41:48.143Z,0.1
2019-04-04T02:41:58.551Z,0.2
2019-04-04T02:42:10.389Z,0.2
2019-04-04T02:42:23.214Z,0.2
2019-04-04T02:42:35.065Z,0.2
2019-04-04T02:42:46.898Z,0.2
2019-04-04T02:42:59.726Z,0.2
2019-04-04T02:43:11.548Z,0.1
2019-04-04T02:43:27.139Z,0.1
2019-04-04T02:43:35.212Z,0.1
2019-04-04T02:43:47.039Z,0.2
2019-04-04T02:43:59.605Z,0.1
2019-04-04T02:44:10.712Z,0.2
2019-04-04T02:44:31.647Z,0.3
2019-04-04T02:44:39.996Z,0.5
2019-04-04T02:44:51.839Z,0.4
2019-04-04T02:45:05.465Z,0.3
2019-04-04T02:45:15.503Z,0.3
2019-04-04T02:45:27.370Z,0.2
2019-04-04T02:45:40.184Z,0.2
2019-04-04T02:45:52.022Z,0.2
2019-04-04T02:46:03.867Z,0.2
2019-04-04T02:46:16.713Z,0.1
2019-04-04T02:46:28.527Z,0.1
2019-04-04T02:46:44.050Z,0.1
2019-04-04T02:46:52.176Z,0.1